sensor_id;sensor_type;location;lat;lon;timestamp;P1;durP1;ratioP1;P2;durP2;ratioP2
57667;SDS011;43499;52.366;12.912;2023-05-14T00:00:00;13.40;;;8.80;;
57667;SDS011;43499;52.366;12.912;2023-05-14T00:01:01;11.98;;;8.63;;
57667;SDS011;43499;52.366;12.912;2023-05-14T00:02:02;14.10;;;9.57;;
57667;SDS011;43499;52.366;12.912;2023-05-14T00:03:03;14.18;;;9.30;;
57667;SDS011;43499;52.366;12.912;2023-05-14T00:04:04;17.70;;;9.05;;
57667;SDS011;43499;52.366;12.912;2023-05-14T00:05:05;12.70;;;8.68;;
57667;SDS011;43499;52.366;12.912;2023-05-14T00:06:07;13.10;;;8.48;;
57667;SDS011;43499;52.366;12.912;2023-05-14T00:07:10;11.77;;;8.52;;
57667;SDS011;43499;52.366;12.912;2023-05-14T00:08:11;12.05;;;8.85;;
57667;SDS011;43499;52.366;12.912;2023-05-14T00:09:12;15.07;;;8.98;;
57667;SDS011;43499;52.366;12.912;2023-05-14T00:10:13;11.90;;;8.50;;
57667;SDS011;43499;52.366;12.912;2023-05-14T00:11:14;10.38;;;8.15;;
57667;SDS011;43499;52.366;12.912;2023-05-14T00:12:15;11.63;;;8.82;;
57667;SDS011;43499;52.366;12.912;2023-05-14T00:13:16;11.25;;;9.20;;
57667;SDS011;43499;52.366;12.912;2023-05-14T00:14:18;13.50;;;8.07;;
57667;SDS011;43499;52.366;12.912;2023-05-14T00:15:19;10.52;;;7.75;;
57667;SDS011;43499;52.366;12.912;2023-05-14T00:16:20;11.35;;;8.70;;
57667;SDS011;43499;52.366;12.912;2023-05-14T00:17:21;10.15;;;8.15;;
57667;SDS011;43499;52.366;12.912;2023-05-14T00:18:22;14.82;;;8.73;;
57667;SDS011;43499;52.366;12.912;2023-05-14T00:19:23;14.18;;;8.70;;
57667;SDS011;43499;52.366;12.912;2023-05-14T00:20:24;9.65;;;8.40;;
57667;SDS011;43499;52.366;12.912;2023-05-14T00:21:25;10.18;;;8.15;;
57667;SDS011;43499;52.366;12.912;2023-05-14T00:22:26;14.40;;;8.48;;
57667;SDS011;43499;52.366;12.912;2023-05-14T00:23:27;12.32;;;8.30;;
57667;SDS011;43499;52.366;12.912;2023-05-14T00:24:28;15.32;;;8.45;;
57667;SDS011;43499;52.366;12.912;2023-05-14T00:25:29;14.02;;;8.32;;
57667;SDS011;43499;52.366;12.912;2023-05-14T00:26:30;14.32;;;9.20;;
57667;SDS011;43499;52.366;12.912;2023-05-14T00:27:31;10.60;;;8.25;;
57667;SDS011;43499;52.366;12.912;2023-05-14T00:28:33;12.10;;;8.30;;
57667;SDS011;43499;52.366;12.912;2023-05-14T00:29:34;12.65;;;8.13;;
57667;SDS011;43499;52.366;12.912;2023-05-14T00:30:35;11.98;;;8.23;;
57667;SDS011;43499;52.366;12.912;2023-05-14T00:31:36;13.77;;;8.93;;
57667;SDS011;43499;52.366;12.912;2023-05-14T00:32:37;12.43;;;8.85;;
57667;SDS011;43499;52.366;12.912;2023-05-14T00:33:38;12.07;;;8.85;;
57667;SDS011;43499;52.366;12.912;2023-05-14T00:34:40;11.13;;;9.05;;
57667;SDS011;43499;52.366;12.912;2023-05-14T00:35:41;14.95;;;9.45;;
57667;SDS011;43499;52.366;12.912;2023-05-14T00:36:42;11.48;;;9.10;;
57667;SDS011;43499;52.366;12.912;2023-05-14T00:37:43;11.43;;;8.57;;
57667;SDS011;43499;52.366;12.912;2023-05-14T00:38:44;12.15;;;9.90;;
57667;SDS011;43499;52.366;12.912;2023-05-14T00:39:45;11.82;;;9.40;;
57667;SDS011;43499;52.366;12.912;2023-05-14T00:40:46;10.23;;;7.95;;
57667;SDS011;43499;52.366;12.912;2023-05-14T00:41:51;9.98;;;8.57;;
57667;SDS011;43499;52.366;12.912;2023-05-14T00:42:52;11.60;;;8.57;;
57667;SDS011;43499;52.366;12.912;2023-05-14T00:43:54;13.57;;;8.75;;
57667;SDS011;43499;52.366;12.912;2023-05-14T00:44:55;12.75;;;9.50;;
57667;SDS011;43499;52.366;12.912;2023-05-14T00:45:56;13.55;;;9.07;;
57667;SDS011;43499;52.366;12.912;2023-05-14T00:46:58;12.93;;;8.43;;
57667;SDS011;43499;52.366;12.912;2023-05-14T00:48:01;11.65;;;8.60;;
57667;SDS011;43499;52.366;12.912;2023-05-14T00:49:02;11.65;;;8.90;;
57667;SDS011;43499;52.366;12.912;2023-05-14T00:50:03;17.65;;;10.60;;
57667;SDS011;43499;52.366;12.912;2023-05-14T00:51:05;15.02;;;10.10;;
57667;SDS011;43499;52.366;12.912;2023-05-14T00:52:07;11.80;;;9.20;;
57667;SDS011;43499;52.366;12.912;2023-05-14T00:53:08;11.65;;;9.20;;
57667;SDS011;43499;52.366;12.912;2023-05-14T00:54:12;11.35;;;8.68;;
57667;SDS011;43499;52.366;12.912;2023-05-14T00:55:14;14.23;;;9.85;;
57667;SDS011;43499;52.366;12.912;2023-05-14T00:56:16;12.98;;;9.15;;
57667;SDS011;43499;52.366;12.912;2023-05-14T00:57:17;12.80;;;8.10;;
57667;SDS011;43499;52.366;12.912;2023-05-14T00:58:18;13.60;;;9.65;;
57667;SDS011;43499;52.366;12.912;2023-05-14T00:59:20;12.25;;;8.40;;
57667;SDS011;43499;52.366;12.912;2023-05-14T01:00:21;13.70;;;9.10;;
57667;SDS011;43499;52.366;12.912;2023-05-14T01:01:22;13.10;;;9.25;;
57667;SDS011;43499;52.366;12.912;2023-05-14T01:02:23;11.82;;;8.82;;
57667;SDS011;43499;52.366;12.912;2023-05-14T01:03:24;11.75;;;9.40;;
57667;SDS011;43499;52.366;12.912;2023-05-14T01:04:25;14.35;;;9.60;;
57667;SDS011;43499;52.366;12.912;2023-05-14T01:05:28;10.57;;;8.85;;
57667;SDS011;43499;52.366;12.912;2023-05-14T01:08:05;12.85;;;8.77;;
57667;SDS011;43499;52.366;12.912;2023-05-14T01:09:26;9.40;;;8.25;;
57667;SDS011;43499;52.366;12.912;2023-05-14T01:10:38;12.80;;;9.30;;
57667;SDS011;43499;52.366;12.912;2023-05-14T01:11:56;11.02;;;8.77;;
57667;SDS011;43499;52.366;12.912;2023-05-14T01:13:12;13.00;;;9.20;;
57667;SDS011;43499;52.366;12.912;2023-05-14T01:14:31;9.27;;;8.15;;
57667;SDS011;43499;52.366;12.912;2023-05-14T01:15:37;9.65;;;8.35;;
57667;SDS011;43499;52.366;12.912;2023-05-14T01:16:39;10.43;;;9.05;;
57667;SDS011;43499;52.366;12.912;2023-05-14T01:17:42;11.68;;;8.77;;
57667;SDS011;43499;52.366;12.912;2023-05-14T01:18:47;14.23;;;8.73;;
57667;SDS011;43499;52.366;12.912;2023-05-14T01:19:51;13.18;;;9.20;;
57667;SDS011;43499;52.366;12.912;2023-05-14T01:20:54;13.40;;;8.80;;
57667;SDS011;43499;52.366;12.912;2023-05-14T01:21:55;13.93;;;8.82;;
57667;SDS011;43499;52.366;12.912;2023-05-14T01:22:56;11.95;;;9.20;;
57667;SDS011;43499;52.366;12.912;2023-05-14T01:23:57;13.05;;;9.35;;
57667;SDS011;43499;52.366;12.912;2023-05-14T01:24:58;13.95;;;8.75;;
57667;SDS011;43499;52.366;12.912;2023-05-14T01:26:00;14.05;;;8.75;;
57667;SDS011;43499;52.366;12.912;2023-05-14T01:27:06;14.35;;;9.02;;
57667;SDS011;43499;52.366;12.912;2023-05-14T01:28:26;13.40;;;9.30;;
57667;SDS011;43499;52.366;12.912;2023-05-14T01:29:32;13.02;;;9.30;;
57667;SDS011;43499;52.366;12.912;2023-05-14T01:30:39;13.73;;;9.52;;
57667;SDS011;43499;52.366;12.912;2023-05-14T01:31:43;15.15;;;8.90;;
57667;SDS011;43499;52.366;12.912;2023-05-14T01:32:47;11.30;;;8.98;;
57667;SDS011;43499;52.366;12.912;2023-05-14T01:33:50;11.57;;;8.77;;
57667;SDS011;43499;52.366;12.912;2023-05-14T01:34:52;12.80;;;9.02;;
57667;SDS011;43499;52.366;12.912;2023-05-14T01:35:58;11.02;;;9.07;;
57667;SDS011;43499;52.366;12.912;2023-05-14T01:36:59;11.32;;;9.13;;
57667;SDS011;43499;52.366;12.912;2023-05-14T01:38:03;12.18;;;9.43;;
57667;SDS011;43499;52.366;12.912;2023-05-14T01:39:07;11.95;;;9.68;;
57667;SDS011;43499;52.366;12.912;2023-05-14T01:40:10;11.95;;;9.32;;
57667;SDS011;43499;52.366;12.912;2023-05-14T01:41:11;15.27;;;9.77;;
57667;SDS011;43499;52.366;12.912;2023-05-14T01:42:14;13.55;;;10.50;;
57667;SDS011;43499;52.366;12.912;2023-05-14T01:43:15;14.45;;;9.82;;
57667;SDS011;43499;52.366;12.912;2023-05-14T01:44:17;13.60;;;9.50;;
57667;SDS011;43499;52.366;12.912;2023-05-14T01:45:19;13.63;;;9.10;;
57667;SDS011;43499;52.366;12.912;2023-05-14T01:46:20;13.90;;;9.98;;
57667;SDS011;43499;52.366;12.912;2023-05-14T01:47:23;12.02;;;9.68;;
57667;SDS011;43499;52.366;12.912;2023-05-14T01:48:24;14.82;;;10.23;;
57667;SDS011;43499;52.366;12.912;2023-05-14T01:49:26;14.80;;;9.82;;
57667;SDS011;43499;52.366;12.912;2023-05-14T01:50:27;11.85;;;9.90;;
57667;SDS011;43499;52.366;12.912;2023-05-14T01:51:28;13.05;;;9.38;;
57667;SDS011;43499;52.366;12.912;2023-05-14T01:52:29;12.93;;;8.90;;
57667;SDS011;43499;52.366;12.912;2023-05-14T01:53:30;14.68;;;9.80;;
57667;SDS011;43499;52.366;12.912;2023-05-14T01:54:33;19.48;;;9.05;;
57667;SDS011;43499;52.366;12.912;2023-05-14T01:55:35;17.25;;;9.00;;
57667;SDS011;43499;52.366;12.912;2023-05-14T01:56:37;10.75;;;8.70;;
57667;SDS011;43499;52.366;12.912;2023-05-14T01:57:38;14.05;;;8.60;;
57667;SDS011;43499;52.366;12.912;2023-05-14T01:58:39;11.50;;;9.65;;
57667;SDS011;43499;52.366;12.912;2023-05-14T01:59:40;10.98;;;9.75;;
57667;SDS011;43499;52.366;12.912;2023-05-14T02:00:41;14.70;;;9.45;;
57667;SDS011;43499;52.366;12.912;2023-05-14T02:01:42;13.20;;;9.32;;
57667;SDS011;43499;52.366;12.912;2023-05-14T02:02:43;11.70;;;9.15;;
57667;SDS011;43499;52.366;12.912;2023-05-14T02:03:46;14.38;;;9.57;;
57667;SDS011;43499;52.366;12.912;2023-05-14T02:04:47;11.50;;;9.70;;
57667;SDS011;43499;52.366;12.912;2023-05-14T02:05:48;12.73;;;9.40;;
57667;SDS011;43499;52.366;12.912;2023-05-14T02:06:49;12.07;;;9.85;;
57667;SDS011;43499;52.366;12.912;2023-05-14T02:07:51;12.73;;;10.20;;
57667;SDS011;43499;52.366;12.912;2023-05-14T02:08:52;17.67;;;11.45;;
57667;SDS011;43499;52.366;12.912;2023-05-14T02:09:53;13.02;;;10.98;;
57667;SDS011;43499;52.366;12.912;2023-05-14T02:10:55;15.95;;;11.63;;
57667;SDS011;43499;52.366;12.912;2023-05-14T02:11:58;20.05;;;11.40;;
57667;SDS011;43499;52.366;12.912;2023-05-14T02:12:59;14.98;;;11.65;;
57667;SDS011;43499;52.366;12.912;2023-05-14T02:14:01;20.35;;;11.68;;
57667;SDS011;43499;52.366;12.912;2023-05-14T02:15:02;16.67;;;11.50;;
57667;SDS011;43499;52.366;12.912;2023-05-14T02:16:04;19.85;;;13.02;;
57667;SDS011;43499;52.366;12.912;2023-05-14T02:17:05;15.00;;;11.13;;
57667;SDS011;43499;52.366;12.912;2023-05-14T02:18:06;19.30;;;12.10;;
57667;SDS011;43499;52.366;12.912;2023-05-14T02:19:08;18.25;;;12.07;;
57667;SDS011;43499;52.366;12.912;2023-05-14T02:20:09;16.13;;;10.98;;
57667;SDS011;43499;52.366;12.912;2023-05-14T02:21:15;17.23;;;10.48;;
57667;SDS011;43499;52.366;12.912;2023-05-14T02:22:16;16.65;;;11.02;;
57667;SDS011;43499;52.366;12.912;2023-05-14T02:23:18;15.68;;;10.50;;
57667;SDS011;43499;52.366;12.912;2023-05-14T02:24:19;13.13;;;10.25;;
57667;SDS011;43499;52.366;12.912;2023-05-14T02:25:20;14.25;;;10.52;;
57667;SDS011;43499;52.366;12.912;2023-05-14T02:26:21;14.90;;;10.82;;
57667;SDS011;43499;52.366;12.912;2023-05-14T02:27:22;15.70;;;11.70;;
57667;SDS011;43499;52.366;12.912;2023-05-14T02:28:23;18.58;;;10.98;;
57667;SDS011;43499;52.366;12.912;2023-05-14T02:29:24;12.43;;;10.05;;
57667;SDS011;43499;52.366;12.912;2023-05-14T02:30:25;15.77;;;11.20;;
57667;SDS011;43499;52.366;12.912;2023-05-14T02:31:26;15.95;;;11.35;;
57667;SDS011;43499;52.366;12.912;2023-05-14T02:32:27;14.13;;;10.98;;
57667;SDS011;43499;52.366;12.912;2023-05-14T02:33:28;17.35;;;11.73;;
57667;SDS011;43499;52.366;12.912;2023-05-14T02:34:29;17.13;;;12.27;;
57667;SDS011;43499;52.366;12.912;2023-05-14T02:35:30;17.42;;;11.98;;
57667;SDS011;43499;52.366;12.912;2023-05-14T02:36:31;18.70;;;13.10;;
57667;SDS011;43499;52.366;12.912;2023-05-14T02:37:32;22.50;;;14.05;;
57667;SDS011;43499;52.366;12.912;2023-05-14T02:38:34;20.90;;;13.75;;
57667;SDS011;43499;52.366;12.912;2023-05-14T02:39:35;20.73;;;14.45;;
57667;SDS011;43499;52.366;12.912;2023-05-14T02:40:36;17.65;;;13.00;;
57667;SDS011;43499;52.366;12.912;2023-05-14T02:41:37;20.20;;;13.60;;
57667;SDS011;43499;52.366;12.912;2023-05-14T02:42:39;19.77;;;13.30;;
57667;SDS011;43499;52.366;12.912;2023-05-14T02:43:40;22.38;;;13.73;;
57667;SDS011;43499;52.366;12.912;2023-05-14T02:44:42;18.05;;;12.75;;
57667;SDS011;43499;52.366;12.912;2023-05-14T02:45:43;18.33;;;12.68;;
57667;SDS011;43499;52.366;12.912;2023-05-14T02:46:44;22.77;;;13.50;;
57667;SDS011;43499;52.366;12.912;2023-05-14T02:47:45;19.42;;;12.55;;
57667;SDS011;43499;52.366;12.912;2023-05-14T02:48:46;18.73;;;12.25;;
57667;SDS011;43499;52.366;12.912;2023-05-14T02:49:47;19.67;;;12.48;;
57667;SDS011;43499;52.366;12.912;2023-05-14T02:50:48;19.70;;;13.13;;
57667;SDS011;43499;52.366;12.912;2023-05-14T02:51:51;15.52;;;11.88;;
57667;SDS011;43499;52.366;12.912;2023-05-14T02:52:53;16.38;;;13.00;;
57667;SDS011;43499;52.366;12.912;2023-05-14T02:53:55;16.38;;;12.15;;
57667;SDS011;43499;52.366;12.912;2023-05-14T02:54:56;16.80;;;12.52;;
57667;SDS011;43499;52.366;12.912;2023-05-14T02:55:57;20.08;;;13.52;;
57667;SDS011;43499;52.366;12.912;2023-05-14T02:56:58;13.98;;;11.20;;
57667;SDS011;43499;52.366;12.912;2023-05-14T02:57:59;15.65;;;11.85;;
57667;SDS011;43499;52.366;12.912;2023-05-14T02:59:00;16.17;;;12.75;;
57667;SDS011;43499;52.366;12.912;2023-05-14T03:00:01;18.98;;;12.68;;
57667;SDS011;43499;52.366;12.912;2023-05-14T03:01:02;16.17;;;12.15;;
57667;SDS011;43499;52.366;12.912;2023-05-14T03:02:03;17.33;;;12.05;;
57667;SDS011;43499;52.366;12.912;2023-05-14T03:03:05;16.63;;;11.27;;
57667;SDS011;43499;52.366;12.912;2023-05-14T03:04:06;16.65;;;12.20;;
57667;SDS011;43499;52.366;12.912;2023-05-14T03:05:07;15.85;;;11.65;;
57667;SDS011;43499;52.366;12.912;2023-05-14T03:06:09;16.08;;;10.65;;
57667;SDS011;43499;52.366;12.912;2023-05-14T03:07:10;14.95;;;11.18;;
57667;SDS011;43499;52.366;12.912;2023-05-14T03:08:11;14.63;;;11.27;;
57667;SDS011;43499;52.366;12.912;2023-05-14T03:09:12;17.30;;;11.65;;
57667;SDS011;43499;52.366;12.912;2023-05-14T03:10:13;16.65;;;11.60;;
57667;SDS011;43499;52.366;12.912;2023-05-14T03:11:14;17.10;;;11.25;;
57667;SDS011;43499;52.366;12.912;2023-05-14T03:12:16;17.52;;;11.43;;
57667;SDS011;43499;52.366;12.912;2023-05-14T03:13:17;17.02;;;12.32;;
57667;SDS011;43499;52.366;12.912;2023-05-14T03:14:20;15.32;;;11.40;;
57667;SDS011;43499;52.366;12.912;2023-05-14T03:15:21;15.07;;;12.18;;
57667;SDS011;43499;52.366;12.912;2023-05-14T03:16:22;14.48;;;11.00;;
57667;SDS011;43499;52.366;12.912;2023-05-14T03:17:23;16.35;;;11.85;;
57667;SDS011;43499;52.366;12.912;2023-05-14T03:18:24;20.42;;;11.73;;
57667;SDS011;43499;52.366;12.912;2023-05-14T03:19:28;18.17;;;13.23;;
57667;SDS011;43499;52.366;12.912;2023-05-14T03:20:29;15.15;;;12.90;;
57667;SDS011;43499;52.366;12.912;2023-05-14T03:21:30;18.05;;;13.35;;
57667;SDS011;43499;52.366;12.912;2023-05-14T03:22:31;20.98;;;13.55;;
57667;SDS011;43499;52.366;12.912;2023-05-14T03:23:32;17.00;;;13.50;;
57667;SDS011;43499;52.366;12.912;2023-05-14T03:24:36;18.35;;;13.95;;
57667;SDS011;43499;52.366;12.912;2023-05-14T03:25:39;20.25;;;13.10;;
57667;SDS011;43499;52.366;12.912;2023-05-14T03:26:40;18.70;;;12.75;;
57667;SDS011;43499;52.366;12.912;2023-05-14T03:27:41;20.65;;;14.40;;
57667;SDS011;43499;52.366;12.912;2023-05-14T03:28:43;23.30;;;14.60;;
57667;SDS011;43499;52.366;12.912;2023-05-14T03:29:44;18.33;;;13.23;;
57667;SDS011;43499;52.366;12.912;2023-05-14T03:30:45;17.13;;;13.50;;
57667;SDS011;43499;52.366;12.912;2023-05-14T03:31:46;21.98;;;12.77;;
57667;SDS011;43499;52.366;12.912;2023-05-14T03:32:47;18.77;;;12.48;;
57667;SDS011;43499;52.366;12.912;2023-05-14T03:33:48;17.98;;;13.07;;
57667;SDS011;43499;52.366;12.912;2023-05-14T03:34:49;16.55;;;12.07;;
57667;SDS011;43499;52.366;12.912;2023-05-14T03:35:50;21.05;;;12.07;;
57667;SDS011;43499;52.366;12.912;2023-05-14T03:36:51;20.27;;;12.80;;
57667;SDS011;43499;52.366;12.912;2023-05-14T03:37:52;18.48;;;13.02;;
57667;SDS011;43499;52.366;12.912;2023-05-14T03:38:53;18.67;;;13.82;;
57667;SDS011;43499;52.366;12.912;2023-05-14T03:39:54;18.35;;;14.27;;
57667;SDS011;43499;52.366;12.912;2023-05-14T03:40:56;17.50;;;13.32;;
57667;SDS011;43499;52.366;12.912;2023-05-14T03:41:57;20.75;;;12.88;;
57667;SDS011;43499;52.366;12.912;2023-05-14T03:42:58;20.17;;;13.32;;
57667;SDS011;43499;52.366;12.912;2023-05-14T03:43:59;23.35;;;12.88;;
57667;SDS011;43499;52.366;12.912;2023-05-14T03:45:01;18.33;;;13.23;;
57667;SDS011;43499;52.366;12.912;2023-05-14T03:46:02;16.98;;;13.55;;
57667;SDS011;43499;52.366;12.912;2023-05-14T03:47:03;19.35;;;14.00;;
57667;SDS011;43499;52.366;12.912;2023-05-14T03:48:05;19.60;;;13.50;;
57667;SDS011;43499;52.366;12.912;2023-05-14T03:49:06;20.20;;;14.85;;
57667;SDS011;43499;52.366;12.912;2023-05-14T03:50:08;16.00;;;13.25;;
57667;SDS011;43499;52.366;12.912;2023-05-14T03:51:10;16.90;;;14.23;;
57667;SDS011;43499;52.366;12.912;2023-05-14T03:52:11;19.77;;;13.63;;
57667;SDS011;43499;52.366;12.912;2023-05-14T03:53:12;20.33;;;14.30;;
57667;SDS011;43499;52.366;12.912;2023-05-14T03:54:13;18.70;;;13.63;;
57667;SDS011;43499;52.366;12.912;2023-05-14T03:55:14;20.05;;;14.00;;
57667;SDS011;43499;52.366;12.912;2023-05-14T03:56:16;19.77;;;14.13;;
57667;SDS011;43499;52.366;12.912;2023-05-14T03:57:17;24.20;;;15.27;;
57667;SDS011;43499;52.366;12.912;2023-05-14T03:58:18;19.80;;;14.23;;
57667;SDS011;43499;52.366;12.912;2023-05-14T03:59:19;24.38;;;14.10;;
57667;SDS011;43499;52.366;12.912;2023-05-14T04:00:20;24.63;;;14.90;;
57667;SDS011;43499;52.366;12.912;2023-05-14T04:01:21;28.73;;;16.23;;
57667;SDS011;43499;52.366;12.912;2023-05-14T04:02:22;21.80;;;14.93;;
57667;SDS011;43499;52.366;12.912;2023-05-14T04:03:23;21.77;;;15.55;;
57667;SDS011;43499;52.366;12.912;2023-05-14T04:04:25;19.83;;;14.98;;
57667;SDS011;43499;52.366;12.912;2023-05-14T04:05:26;21.23;;;14.45;;
57667;SDS011;43499;52.366;12.912;2023-05-14T04:06:27;20.77;;;14.68;;
57667;SDS011;43499;52.366;12.912;2023-05-14T04:07:28;20.98;;;14.45;;
57667;SDS011;43499;52.366;12.912;2023-05-14T04:08:30;23.00;;;14.07;;
57667;SDS011;43499;52.366;12.912;2023-05-14T04:09:31;20.50;;;14.32;;
57667;SDS011;43499;52.366;12.912;2023-05-14T04:10:32;21.00;;;14.88;;
57667;SDS011;43499;52.366;12.912;2023-05-14T04:11:34;21.33;;;14.20;;
57667;SDS011;43499;52.366;12.912;2023-05-14T04:12:35;20.33;;;15.00;;
57667;SDS011;43499;52.366;12.912;2023-05-14T04:13:37;21.45;;;15.05;;
57667;SDS011;43499;52.366;12.912;2023-05-14T04:14:38;26.08;;;15.25;;
57667;SDS011;43499;52.366;12.912;2023-05-14T04:15:39;22.23;;;14.05;;
57667;SDS011;43499;52.366;12.912;2023-05-14T04:16:40;22.85;;;14.77;;
57667;SDS011;43499;52.366;12.912;2023-05-14T04:17:41;21.45;;;13.77;;
57667;SDS011;43499;52.366;12.912;2023-05-14T04:18:42;21.08;;;13.60;;
57667;SDS011;43499;52.366;12.912;2023-05-14T04:19:43;21.13;;;12.57;;
57667;SDS011;43499;52.366;12.912;2023-05-14T04:20:44;20.27;;;13.20;;
57667;SDS011;43499;52.366;12.912;2023-05-14T04:21:45;16.15;;;11.95;;
57667;SDS011;43499;52.366;12.912;2023-05-14T04:22:46;17.98;;;12.63;;
57667;SDS011;43499;52.366;12.912;2023-05-14T04:23:47;18.83;;;12.43;;
57667;SDS011;43499;52.366;12.912;2023-05-14T04:24:49;16.15;;;11.35;;
57667;SDS011;43499;52.366;12.912;2023-05-14T04:25:50;15.68;;;11.73;;
57667;SDS011;43499;52.366;12.912;2023-05-14T04:26:51;19.50;;;11.55;;
57667;SDS011;43499;52.366;12.912;2023-05-14T04:27:52;15.65;;;11.50;;
57667;SDS011;43499;52.366;12.912;2023-05-14T04:28:53;16.27;;;11.35;;
57667;SDS011;43499;52.366;12.912;2023-05-14T04:29:54;17.42;;;11.38;;
57667;SDS011;43499;52.366;12.912;2023-05-14T04:30:55;13.93;;;10.65;;
57667;SDS011;43499;52.366;12.912;2023-05-14T04:31:56;15.15;;;11.48;;
57667;SDS011;43499;52.366;12.912;2023-05-14T04:32:57;16.65;;;11.70;;
57667;SDS011;43499;52.366;12.912;2023-05-14T04:33:58;16.55;;;11.02;;
57667;SDS011;43499;52.366;12.912;2023-05-14T04:34:59;15.50;;;12.10;;
57667;SDS011;43499;52.366;12.912;2023-05-14T04:36:00;19.40;;;12.32;;
57667;SDS011;43499;52.366;12.912;2023-05-14T04:37:01;16.10;;;11.35;;
57667;SDS011;43499;52.366;12.912;2023-05-14T04:38:03;16.23;;;11.55;;
57667;SDS011;43499;52.366;12.912;2023-05-14T04:39:05;12.18;;;10.32;;
57667;SDS011;43499;52.366;12.912;2023-05-14T04:40:08;13.80;;;10.90;;
57667;SDS011;43499;52.366;12.912;2023-05-14T04:41:13;16.77;;;11.48;;
57667;SDS011;43499;52.366;12.912;2023-05-14T04:42:14;13.13;;;10.73;;
57667;SDS011;43499;52.366;12.912;2023-05-14T04:43:15;21.13;;;10.98;;
57667;SDS011;43499;52.366;12.912;2023-05-14T04:44:17;12.27;;;10.98;;
57667;SDS011;43499;52.366;12.912;2023-05-14T04:45:18;16.25;;;11.45;;
57667;SDS011;43499;52.366;12.912;2023-05-14T04:46:19;17.17;;;10.93;;
57667;SDS011;43499;52.366;12.912;2023-05-14T04:47:20;13.68;;;10.45;;
57667;SDS011;43499;52.366;12.912;2023-05-14T04:48:21;13.40;;;10.20;;
57667;SDS011;43499;52.366;12.912;2023-05-14T04:49:23;12.68;;;10.77;;
57667;SDS011;43499;52.366;12.912;2023-05-14T04:50:24;16.33;;;10.73;;
57667;SDS011;43499;52.366;12.912;2023-05-14T04:51:26;14.80;;;10.25;;
57667;SDS011;43499;52.366;12.912;2023-05-14T04:52:27;14.02;;;9.90;;
57667;SDS011;43499;52.366;12.912;2023-05-14T04:53:28;13.27;;;9.68;;
57667;SDS011;43499;52.366;12.912;2023-05-14T04:54:29;15.15;;;10.60;;
57667;SDS011;43499;52.366;12.912;2023-05-14T04:55:30;15.90;;;9.27;;
57667;SDS011;43499;52.366;12.912;2023-05-14T04:56:31;17.27;;;11.60;;
57667;SDS011;43499;52.366;12.912;2023-05-14T04:57:32;13.15;;;10.23;;
57667;SDS011;43499;52.366;12.912;2023-05-14T04:58:33;13.10;;;9.77;;
57667;SDS011;43499;52.366;12.912;2023-05-14T04:59:34;12.75;;;9.77;;
57667;SDS011;43499;52.366;12.912;2023-05-14T05:00:36;13.85;;;10.00;;
57667;SDS011;43499;52.366;12.912;2023-05-14T05:01:37;12.65;;;9.32;;
57667;SDS011;43499;52.366;12.912;2023-05-14T05:02:38;16.13;;;9.13;;
57667;SDS011;43499;52.366;12.912;2023-05-14T05:03:39;11.77;;;8.85;;
57667;SDS011;43499;52.366;12.912;2023-05-14T05:04:40;13.88;;;10.20;;
57667;SDS011;43499;52.366;12.912;2023-05-14T05:05:41;11.48;;;9.18;;
57667;SDS011;43499;52.366;12.912;2023-05-14T05:06:42;18.73;;;10.43;;
57667;SDS011;43499;52.366;12.912;2023-05-14T05:07:43;14.13;;;9.00;;
57667;SDS011;43499;52.366;12.912;2023-05-14T05:08:44;13.07;;;9.50;;
57667;SDS011;43499;52.366;12.912;2023-05-14T05:09:45;13.82;;;9.30;;
57667;SDS011;43499;52.366;12.912;2023-05-14T05:10:46;11.98;;;9.27;;
57667;SDS011;43499;52.366;12.912;2023-05-14T05:11:47;12.60;;;9.68;;
57667;SDS011;43499;52.366;12.912;2023-05-14T05:12:48;10.98;;;8.80;;
57667;SDS011;43499;52.366;12.912;2023-05-14T05:13:50;11.85;;;9.05;;
57667;SDS011;43499;52.366;12.912;2023-05-14T05:14:51;16.08;;;8.95;;
57667;SDS011;43499;52.366;12.912;2023-05-14T05:15:52;14.68;;;8.63;;
57667;SDS011;43499;52.366;12.912;2023-05-14T05:16:53;16.30;;;9.55;;
57667;SDS011;43499;52.366;12.912;2023-05-14T05:17:54;13.70;;;9.13;;
57667;SDS011;43499;52.366;12.912;2023-05-14T05:18:55;12.65;;;8.68;;
57667;SDS011;43499;52.366;12.912;2023-05-14T05:19:57;13.88;;;8.90;;
57667;SDS011;43499;52.366;12.912;2023-05-14T05:20:58;11.80;;;8.23;;
57667;SDS011;43499;52.366;12.912;2023-05-14T05:22:00;13.18;;;8.70;;
57667;SDS011;43499;52.366;12.912;2023-05-14T05:23:01;15.32;;;9.05;;
57667;SDS011;43499;52.366;12.912;2023-05-14T05:24:03;13.98;;;8.07;;
57667;SDS011;43499;52.366;12.912;2023-05-14T05:25:04;13.60;;;8.98;;
57667;SDS011;43499;52.366;12.912;2023-05-14T05:26:06;11.68;;;8.23;;
57667;SDS011;43499;52.366;12.912;2023-05-14T05:27:07;10.90;;;9.07;;
57667;SDS011;43499;52.366;12.912;2023-05-14T05:28:08;11.98;;;7.80;;
57667;SDS011;43499;52.366;12.912;2023-05-14T05:29:09;16.65;;;9.38;;
57667;SDS011;43499;52.366;12.912;2023-05-14T05:30:10;11.40;;;8.55;;
57667;SDS011;43499;52.366;12.912;2023-05-14T05:31:11;11.13;;;7.90;;
57667;SDS011;43499;52.366;12.912;2023-05-14T05:32:12;10.05;;;8.48;;
57667;SDS011;43499;52.366;12.912;2023-05-14T05:33:13;14.43;;;8.07;;
57667;SDS011;43499;52.366;12.912;2023-05-14T05:34:14;12.27;;;8.43;;
57667;SDS011;43499;52.366;12.912;2023-05-14T05:35:15;10.38;;;7.75;;
57667;SDS011;43499;52.366;12.912;2023-05-14T05:36:16;12.35;;;7.50;;
57667;SDS011;43499;52.366;12.912;2023-05-14T05:37:17;11.85;;;8.30;;
57667;SDS011;43499;52.366;12.912;2023-05-14T05:38:18;10.80;;;7.85;;
57667;SDS011;43499;52.366;12.912;2023-05-14T05:39:20;16.15;;;8.18;;
57667;SDS011;43499;52.366;12.912;2023-05-14T05:40:21;11.27;;;7.53;;
57667;SDS011;43499;52.366;12.912;2023-05-14T05:41:22;11.57;;;7.25;;
57667;SDS011;43499;52.366;12.912;2023-05-14T05:42:23;10.57;;;6.72;;
57667;SDS011;43499;52.366;12.912;2023-05-14T05:43:24;15.07;;;7.25;;
57667;SDS011;43499;52.366;12.912;2023-05-14T05:44:25;11.50;;;7.68;;
57667;SDS011;43499;52.366;12.912;2023-05-14T05:45:26;9.98;;;7.78;;
57667;SDS011;43499;52.366;12.912;2023-05-14T05:46:27;8.95;;;7.22;;
57667;SDS011;43499;52.366;12.912;2023-05-14T05:47:28;11.13;;;7.78;;
57667;SDS011;43499;52.366;12.912;2023-05-14T05:48:29;11.00;;;7.35;;
57667;SDS011;43499;52.366;12.912;2023-05-14T05:49:30;10.40;;;7.30;;
57667;SDS011;43499;52.366;12.912;2023-05-14T05:50:31;11.30;;;7.93;;
57667;SDS011;43499;52.366;12.912;2023-05-14T05:51:32;10.85;;;6.97;;
57667;SDS011;43499;52.366;12.912;2023-05-14T05:52:33;11.23;;;7.55;;
57667;SDS011;43499;52.366;12.912;2023-05-14T05:53:34;10.98;;;7.32;;
57667;SDS011;43499;52.366;12.912;2023-05-14T05:54:35;13.77;;;6.90;;
57667;SDS011;43499;52.366;12.912;2023-05-14T05:55:36;12.65;;;7.20;;
57667;SDS011;43499;52.366;12.912;2023-05-14T05:56:37;9.25;;;6.53;;
57667;SDS011;43499;52.366;12.912;2023-05-14T05:57:38;9.90;;;6.47;;
57667;SDS011;43499;52.366;12.912;2023-05-14T05:58:39;9.77;;;6.25;;
57667;SDS011;43499;52.366;12.912;2023-05-14T05:59:41;10.13;;;6.90;;